createdAt,value
2019-03-31T00:03:43.557Z,101321.71
2019-03-31T00:06:12.015Z,101322.59
2019-03-31T00:08:40.933Z,101323.63
2019-03-31T00:11:09.422Z,101318.98
2019-03-31T00:13:37.987Z,101321.33
2019-03-31T00:16:06.500Z,101321.97
2019-03-31T00:18:35.276Z,101319.28
2019-03-31T00:21:03.855Z,101323.12
2019-03-31T00:23:32.415Z,101325.60
2019-03-31T00:26:00.847Z,101321.92
2019-03-31T00:28:29.347Z,101321.80
2019-03-31T00:30:58.094Z,101321.33
2019-03-31T00:33:26.530Z,101322.00
2019-03-31T00:35:55.091Z,101327.69
2019-03-31T00:38:23.523Z,101328.39
2019-03-31T00:40:51.931Z,101324.41
2019-03-31T00:43:20.713Z,101325.75
2019-03-31T00:45:49.110Z,101331.44
2019-03-31T00:48:17.538Z,101329.09
2019-03-31T00:50:45.934Z,101328.76
2019-03-31T00:53:14.368Z,101325.08
2019-03-31T00:55:42.905Z,101320.77
2019-03-31T00:58:11.377Z,101332.44
2019-03-31T01:00:59.059Z,101329.76
2019-03-31T01:06:37.739Z,101333.64
2019-03-31T01:09:46.470Z,101335.78
2019-03-31T01:12:15.003Z,101334.64
2019-03-31T01:18:33.331Z,101339.48
2019-03-31T01:21:01.763Z,101347.17
2019-03-31T01:23:30.261Z,101345.37
2019-03-31T01:36:56.880Z,101354.39
2019-03-31T01:42:00.859Z,101356.42
2019-03-31T01:44:29.240Z,101356.92
2019-03-31T01:49:46.812Z,101356.75
2019-03-31T01:52:15.254Z,101348.56
2019-03-31T01:54:43.738Z,101351.91
2019-03-31T01:57:12.179Z,101359.59
2019-03-31T01:59:40.677Z,101363.60
2019-03-31T02:04:58.359Z,101362.63
2019-03-31T02:07:27.273Z,101360.13
2019-03-31T02:09:55.856Z,101366.30
2019-03-31T02:12:24.644Z,101368.64
2019-03-31T02:14:53.132Z,101365.13
2019-03-31T02:17:21.584Z,101369.14
2019-03-31T02:19:49.979Z,101370.31
2019-03-31T02:22:18.781Z,101371.84
2019-03-31T02:24:47.323Z,101366.32
2019-03-31T02:27:15.782Z,101367.66
2019-03-31T02:29:44.279Z,101360.77
2019-03-31T02:32:23.140Z,101366.81
2019-03-31T02:34:43.543Z,101369.29
2019-03-31T02:37:12.014Z,101366.64
2019-03-31T02:39:40.453Z,101363.65
2019-03-31T02:42:09.027Z,101369.32
2019-03-31T02:44:37.460Z,101364.00
2019-03-31T02:47:05.929Z,101363.32
2019-03-31T02:49:34.322Z,101365.32
2019-03-31T02:52:03.172Z,101367.02
2019-03-31T02:54:31.697Z,101370.19
2019-03-31T02:57:00.139Z,101368.83
2019-03-31T03:00:08.862Z,101371.33
2019-03-31T03:03:17.325Z,101372.69
2019-03-31T03:05:45.832Z,101378.35
2019-03-31T03:08:54.571Z,101378.86
2019-03-31T03:12:02.989Z,101386.39
2019-03-31T03:15:11.427Z,101392.06
2019-03-31T03:17:40.176Z,101383.20
2019-03-31T03:20:08.718Z,101389.06
2019-03-31T03:22:37.089Z,101391.71
2019-03-31T03:25:55.728Z,101391.38
2019-03-31T03:28:15.625Z,101395.39
2019-03-31T03:30:44.190Z,101399.71
2019-03-31T03:33:16.303Z,101398.73
2019-03-31T03:35:42.879Z,101407.55
2019-03-31T03:38:11.289Z,101406.37
2019-03-31T03:40:39.728Z,101407.04
2019-03-31T03:43:08.185Z,101398.34
2019-03-31T03:45:36.644Z,101404.53
2019-03-31T03:48:05.059Z,101398.36
2019-03-31T03:50:33.466Z,101409.04
2019-03-31T03:53:02.248Z,101409.84
2019-03-31T03:55:30.696Z,101416.67
2019-03-31T03:57:59.259Z,101419.16
2019-03-31T04:00:27.705Z,101419.66
2019-03-31T04:02:56.494Z,101426.00
2019-03-31T04:05:24.945Z,101422.64
2019-03-31T04:07:53.338Z,101422.64
2019-03-31T04:11:00.516Z,101425.31
2019-03-31T04:13:28.893Z,101423.11
2019-03-31T04:15:57.338Z,101432.63
2019-03-31T04:18:26.092Z,101437.97
2019-03-31T04:20:54.481Z,101439.27
2019-03-31T04:23:23.058Z,101439.27
2019-03-31T04:25:51.621Z,101442.24
2019-03-31T04:28:20.320Z,101450.59
2019-03-31T04:30:48.801Z,101446.25
2019-03-31T04:33:17.287Z,101442.05
2019-03-31T04:35:45.783Z,101450.24
2019-03-31T04:38:14.310Z,101452.08
2019-03-31T04:40:43.139Z,101451.73
2019-03-31T04:43:12.033Z,101457.22
2019-03-31T04:45:40.622Z,101463.73
2019-03-31T04:48:09.151Z,101465.91
2019-03-31T04:50:37.992Z,101467.73
2019-03-31T04:53:06.524Z,101466.86
2019-03-31T04:55:34.953Z,101475.70
2019-03-31T04:58:03.380Z,101478.20
2019-03-31T05:00:31.813Z,101482.21
2019-03-31T05:03:00.237Z,101483.35
2019-03-31T05:05:28.692Z,101488.34
2019-03-31T05:07:57.134Z,101491.66
2019-03-31T05:10:25.641Z,101495.84
2019-03-31T05:12:54.105Z,101498.31
2019-03-31T05:15:22.549Z,101503.80
2019-03-31T05:17:50.951Z,101513.13
2019-03-31T05:20:19.349Z,101521.44
2019-03-31T05:22:48.056Z,101529.13
2019-03-31T05:25:16.850Z,101536.48
2019-03-31T05:27:45.643Z,101545.18
2019-03-31T05:30:14.166Z,101547.02
2019-03-31T05:32:42.909Z,101554.68
2019-03-31T05:35:11.432Z,101562.17
2019-03-31T05:37:50.953Z,101558.69
2019-03-31T05:40:10.078Z,101569.48
2019-03-31T05:42:38.455Z,101578.82
2019-03-31T05:45:46.921Z,101590.09
2019-03-31T05:48:15.320Z,101590.20
2019-03-31T05:50:44.271Z,101595.64
2019-03-31T05:53:12.835Z,101605.15
2019-03-31T05:55:41.192Z,101604.61
2019-03-31T05:58:09.669Z,101612.25
2019-03-31T06:03:14.260Z,101618.18
2019-03-31T06:05:43.152Z,101620.23
2019-03-31T06:08:11.740Z,101618.92
2019-03-31T06:10:40.119Z,101623.81
2019-03-31T06:13:08.904Z,101628.12
2019-03-31T06:15:37.391Z,101632.47
2019-03-31T06:18:05.843Z,101630.89
2019-03-31T06:20:34.325Z,101631.50
2019-03-31T06:23:02.790Z,101638.11
2019-03-31T06:25:31.195Z,101639.16
2019-03-31T06:27:59.764Z,101645.20
2019-03-31T06:30:28.314Z,101650.91
2019-03-31T06:32:56.773Z,101656.25
2019-03-31T06:35:25.239Z,101653.46
2019-03-31T06:37:53.704Z,101655.05
2019-03-31T06:40:22.243Z,101659.11
2019-03-31T06:42:50.737Z,101666.45
2019-03-31T06:45:19.102Z,101665.23
2019-03-31T06:47:47.586Z,101666.61
2019-03-31T06:50:16.144Z,101669.55
2019-03-31T06:52:44.604Z,101669.30
2019-03-31T06:55:33.921Z,101663.03
2019-03-31T06:58:02.487Z,101659.25
2019-03-31T07:00:31.372Z,101663.36
2019-03-31T07:02:59.853Z,101669.42
2019-03-31T07:05:28.228Z,101672.48
2019-03-31T07:07:56.716Z,101670.03
2019-03-31T07:10:25.260Z,101668.53
2019-03-31T07:12:54.089Z,101669.88
2019-03-31T07:15:22.565Z,101675.58
2019-03-31T07:17:51.017Z,101672.37
2019-03-31T07:20:19.569Z,101678.06
2019-03-31T07:22:48.429Z,101685.27
2019-03-31T07:25:56.907Z,101691.60
2019-03-31T07:28:25.360Z,101693.94
2019-03-31T07:30:54.233Z,101695.00
2019-03-31T07:33:22.665Z,101701.84
2019-03-31T07:35:51.220Z,101703.50
2019-03-31T07:38:19.863Z,101704.73
2019-03-31T07:40:48.379Z,101708.55
2019-03-31T07:43:17.123Z,101714.22
2019-03-31T07:45:45.667Z,101715.81
2019-03-31T07:48:14.095Z,101722.73
2019-03-31T07:50:42.534Z,101724.07
2019-03-31T07:53:10.933Z,101735.43
2019-03-31T07:55:39.495Z,101736.22
2019-03-31T07:58:07.920Z,101733.84
2019-03-31T08:00:36.729Z,101736.67
2019-03-31T08:03:05.526Z,101739.85
2019-03-31T08:05:37.552Z,101743.81
2019-03-31T08:08:04.372Z,101744.45
2019-03-31T08:10:32.734Z,101749.12
2019-03-31T08:13:01.150Z,101755.10
2019-03-31T08:15:29.667Z,101759.11
2019-03-31T08:17:58.035Z,101762.13
2019-03-31T08:20:26.543Z,101765.63
2019-03-31T08:22:57.080Z,101763.91
2019-03-31T08:25:25.180Z,101762.13
2019-03-31T08:27:53.826Z,101766.64
2019-03-31T08:30:22.415Z,101766.58
2019-03-31T08:32:50.791Z,101778.12
2019-03-31T08:35:19.275Z,101777.88
2019-03-31T08:37:47.754Z,101779.27
2019-03-31T08:40:56.283Z,101778.92
2019-03-31T08:43:24.762Z,101776.91
2019-03-31T08:45:53.223Z,101784.25
2019-03-31T08:48:21.793Z,101786.27
2019-03-31T08:50:50.242Z,101789.44
2019-03-31T08:53:18.777Z,101797.28
2019-03-31T08:55:47.306Z,101795.11
2019-03-31T08:58:15.753Z,101801.11
2019-03-31T09:01:03.637Z,101804.25
2019-03-31T09:03:32.132Z,101804.47
2019-03-31T09:06:02.180Z,101811.69
2019-03-31T09:08:30.854Z,101815.75
2019-03-31T09:10:59.372Z,101811.00
2019-03-31T09:13:27.884Z,101811.78
2019-03-31T09:15:56.437Z,101811.39
2019-03-31T09:18:24.883Z,101817.20
2019-03-31T09:20:53.376Z,101816.85
2019-03-31T09:23:21.831Z,101808.34
2019-03-31T09:25:50.384Z,101811.73
2019-03-31T09:28:18.785Z,101819.53
2019-03-31T09:30:47.242Z,101816.63
2019-03-31T09:33:15.791Z,101822.41
2019-03-31T09:35:44.355Z,101836.72
2019-03-31T09:38:12.976Z,101837.00
2019-03-31T09:40:41.477Z,101843.63
2019-03-31T09:43:09.919Z,101847.22
2019-03-31T09:45:38.503Z,101844.19
2019-03-31T09:48:06.996Z,101843.14
2019-03-31T09:50:35.387Z,101849.19
2019-03-31T09:53:03.875Z,101848.92
2019-03-31T09:55:32.394Z,101852.62
2019-03-31T09:58:00.931Z,101857.83
2019-03-31T10:00:49.755Z,101857.12
2019-03-31T10:03:18.460Z,101849.86
2019-03-31T10:05:48.081Z,101852.16
2019-03-31T10:08:17.287Z,101858.78
2019-03-31T10:10:45.810Z,101844.19
2019-03-31T10:13:14.263Z,101850.07
2019-03-31T10:15:42.779Z,101846.75
2019-03-31T10:18:11.205Z,101847.81
2019-03-31T10:20:39.629Z,101855.99
2019-03-31T10:23:08.095Z,101849.83
2019-03-31T10:25:36.616Z,101862.80
2019-03-31T10:28:05.126Z,101850.41
2019-03-31T10:30:52.949Z,101852.70
2019-03-31T10:33:35.418Z,101855.72
2019-03-31T10:35:52.023Z,101852.44
2019-03-31T10:38:20.895Z,101843.14
2019-03-31T10:41:30.965Z,101849.86
2019-03-31T10:43:59.536Z,101844.30
2019-03-31T10:46:27.972Z,101858.89
2019-03-31T10:48:56.420Z,101853.50
2019-03-31T10:51:24.855Z,101858.52
2019-03-31T10:53:53.382Z,101859.17
2019-03-31T10:56:21.860Z,101864.55
2019-03-31T10:58:50.299Z,101867.33
2019-03-31T11:01:18.802Z,101850.84
2019-03-31T11:03:47.189Z,101850.17
2019-03-31T11:06:15.660Z,101844.19
2019-03-31T11:08:44.127Z,101832.69
2019-03-31T11:11:12.513Z,101838.61
2019-03-31T11:13:40.912Z,101843.39
2019-03-31T11:16:09.303Z,101844.33
2019-03-31T11:18:37.763Z,101848.67
2019-03-31T11:23:55.355Z,101849.11
2019-03-31T11:26:23.739Z,101843.13
2019-03-31T11:28:52.291Z,101846.44
2019-03-31T11:31:20.744Z,101849.03
2019-03-31T11:33:49.152Z,101848.07
2019-03-31T11:36:17.618Z,101854.00
2019-03-31T11:38:46.418Z,101855.55
2019-03-31T11:41:14.886Z,101849.39
2019-03-31T11:43:43.308Z,101853.55
2019-03-31T11:46:11.827Z,101854.34
2019-03-31T11:48:40.327Z,101854.73
2019-03-31T11:51:08.701Z,101851.50
2019-03-31T11:53:37.135Z,101856.53
2019-03-31T11:56:05.596Z,101861.70
2019-03-31T11:58:33.975Z,101852.36
2019-03-31T12:01:02.554Z,101848.72
2019-03-31T12:03:31.427Z,101850.72
2019-03-31T12:06:01.185Z,101857.16
2019-03-31T12:08:30.056Z,101855.87
2019-03-31T12:10:58.532Z,101856.55
2019-03-31T12:13:27.071Z,101854.22
2019-03-31T12:15:55.494Z,101844.48
2019-03-31T12:18:24.068Z,101852.87
2019-03-31T12:20:52.890Z,101859.34
2019-03-31T12:23:21.776Z,101855.41
2019-03-31T12:25:50.767Z,101853.87
2019-03-31T12:28:19.198Z,101850.71
2019-03-31T12:30:47.647Z,101851.47
2019-03-31T12:33:16.625Z,101849.52
2019-03-31T12:35:45.146Z,101853.02
2019-03-31T12:38:13.837Z,101854.13
2019-03-31T12:40:42.314Z,101852.94
2019-03-31T12:43:10.876Z,101859.61
2019-03-31T12:45:42.984Z,101851.53
2019-03-31T12:48:09.727Z,101860.10
2019-03-31T12:50:38.272Z,101855.23
2019-03-31T12:53:06.791Z,101859.58
2019-03-31T12:55:35.297Z,101849.22
2019-03-31T12:58:03.741Z,101847.06
2019-03-31T13:00:32.427Z,101849.56
2019-03-31T13:03:00.899Z,101844.20
2019-03-31T13:05:29.444Z,101843.87
2019-03-31T13:07:57.988Z,101853.79
2019-03-31T13:10:26.868Z,101860.92
2019-03-31T13:13:14.665Z,101856.98
2019-03-31T13:15:43.134Z,101860.28
2019-03-31T13:18:11.637Z,101860.59
2019-03-31T13:20:40.280Z,101854.01
2019-03-31T13:23:09.103Z,101848.92
2019-03-31T13:25:37.785Z,101853.56
2019-03-31T13:28:06.398Z,101862.28
2019-03-31T13:30:34.847Z,101861.46
2019-03-31T13:33:03.645Z,101860.08
2019-03-31T13:35:32.233Z,101857.78
2019-03-31T13:38:10.856Z,101849.43
2019-03-31T13:40:31.242Z,101842.59
2019-03-31T13:42:59.794Z,101847.72
2019-03-31T13:45:28.296Z,101847.42
2019-03-31T13:47:58.628Z,101846.44
2019-03-31T13:50:26.944Z,101842.52
2019-03-31T13:52:55.536Z,101847.39
2019-03-31T13:55:23.914Z,101845.21
2019-03-31T13:57:53.152Z,101850.28
2019-03-31T14:00:42.352Z,101846.39
2019-03-31T14:03:10.917Z,101848.13
2019-03-31T14:05:39.363Z,101838.84
2019-03-31T14:08:08.091Z,101851.55
2019-03-31T14:10:36.471Z,101842.38
2019-03-31T14:13:45.006Z,101840.80
2019-03-31T14:16:13.471Z,101843.69
2019-03-31T14:18:41.864Z,101844.00
2019-03-31T14:21:10.313Z,101848.22
2019-03-31T14:23:38.862Z,101851.64
2019-03-31T14:26:07.298Z,101847.09
2019-03-31T14:28:36.102Z,101846.23
2019-03-31T14:31:04.714Z,101846.87
2019-03-31T14:33:33.071Z,101855.27
2019-03-31T14:36:01.638Z,101851.03
2019-03-31T14:38:40.160Z,101848.67
2019-03-31T14:41:00.464Z,101858.20
2019-03-31T14:43:29.086Z,101853.03
2019-03-31T14:45:57.602Z,101846.68
2019-03-31T14:48:26.088Z,101850.34
2019-03-31T14:50:54.554Z,101849.91
2019-03-31T14:53:22.974Z,101859.50
2019-03-31T14:55:51.505Z,101853.78
2019-03-31T14:58:19.956Z,101850.99
2019-03-31T15:00:48.582Z,101849.22
2019-03-31T15:03:18.281Z,101850.73
2019-03-31T15:05:47.296Z,101851.03
2019-03-31T15:08:15.677Z,101858.01
2019-03-31T15:10:44.150Z,101851.79
2019-03-31T15:13:12.606Z,101847.20
2019-03-31T15:15:41.228Z,101852.31
2019-03-31T15:18:09.663Z,101858.52
2019-03-31T15:20:38.155Z,101869.13
2019-03-31T15:23:06.598Z,101871.58
2019-03-31T15:25:35.161Z,101869.27
2019-03-31T15:28:03.695Z,101868.78
2019-03-31T15:30:32.237Z,101871.95
2019-03-31T15:33:00.769Z,101878.75
2019-03-31T15:35:29.486Z,101882.80
2019-03-31T15:37:57.890Z,101880.53
2019-03-31T15:40:26.708Z,101886.14
2019-03-31T15:42:55.278Z,101880.16
2019-03-31T15:45:23.719Z,101886.75
2019-03-31T15:47:52.242Z,101887.13
2019-03-31T15:50:20.772Z,101890.39
2019-03-31T15:52:49.199Z,101888.85
2019-03-31T15:55:57.660Z,101890.77
2019-03-31T15:58:26.109Z,101891.66
2019-03-31T16:00:54.585Z,101887.48
2019-03-31T16:03:23.114Z,101897.58
2019-03-31T16:05:51.652Z,101899.75
2019-03-31T16:08:20.188Z,101903.94
2019-03-31T16:10:48.671Z,101905.14
2019-03-31T16:13:17.038Z,101904.80
2019-03-31T16:15:45.523Z,101911.66
2019-03-31T16:18:14.140Z,101906.98
2019-03-31T16:20:42.697Z,101910.64
2019-03-31T16:23:11.071Z,101912.17
2019-03-31T16:28:15.379Z,101910.92
2019-03-31T16:30:43.926Z,101906.88
2019-03-31T16:33:12.445Z,101915.09
2019-03-31T16:35:40.899Z,101913.59
2019-03-31T16:38:09.430Z,101919.05
2019-03-31T16:40:37.901Z,101920.55
2019-03-31T16:43:06.379Z,101918.52
2019-03-31T16:45:34.859Z,101919.37
2019-03-31T16:48:03.567Z,101924.53
2019-03-31T16:50:32.104Z,101925.50
2019-03-31T16:53:00.603Z,101919.61
2019-03-31T16:55:29.064Z,101922.93
2019-03-31T16:57:57.700Z,101918.91
2019-03-31T17:00:26.465Z,101923.77
2019-03-31T17:02:55.017Z,101923.88
2019-03-31T17:05:23.548Z,101923.00
2019-03-31T17:07:52.104Z,101925.36
2019-03-31T17:10:20.784Z,101934.28
2019-03-31T17:12:49.253Z,101933.59
2019-03-31T17:15:17.680Z,101936.91
2019-03-31T17:17:46.213Z,101940.41
2019-03-31T17:20:14.751Z,101935.20
2019-03-31T17:22:43.357Z,101941.46
2019-03-31T17:25:12.003Z,101946.50
2019-03-31T17:27:40.457Z,101950.09
2019-03-31T17:30:48.968Z,101952.58
2019-03-31T17:33:17.456Z,101947.51
2019-03-31T17:35:46.085Z,101958.97
2019-03-31T17:38:14.984Z,101958.82
2019-03-31T17:40:43.467Z,101957.63
2019-03-31T17:43:11.965Z,101971.89
2019-03-31T17:45:40.564Z,101973.34
2019-03-31T17:48:09.050Z,101981.66
2019-03-31T17:50:37.568Z,101973.09
2019-03-31T17:53:25.479Z,101975.09
2019-03-31T17:55:54.316Z,101976.92
2019-03-31T17:58:23.211Z,101988.05
2019-03-31T18:00:51.719Z,101990.83
2019-03-31T18:03:20.287Z,101992.98
2019-03-31T18:05:48.680Z,101998.27
2019-03-31T18:08:17.134Z,102002.27
2019-03-31T18:10:45.591Z,102001.68
2019-03-31T18:13:14.407Z,102003.13
2019-03-31T18:15:43.199Z,102010.78
2019-03-31T18:18:30.944Z,102006.19
2019-03-31T18:20:59.384Z,102010.30
2019-03-31T18:23:27.888Z,102012.27
2019-03-31T18:25:56.350Z,102020.28
2019-03-31T18:28:24.868Z,102020.59
2019-03-31T18:30:53.261Z,102029.52
2019-03-31T18:33:21.807Z,102022.80
2019-03-31T18:35:50.173Z,102027.09
2019-03-31T18:38:18.669Z,102038.98
2019-03-31T18:41:06.641Z,102038.48
2019-03-31T18:43:50.281Z,102046.95
2019-03-31T18:46:05.784Z,102048.87
2019-03-31T18:48:34.438Z,102051.77
2019-03-31T18:51:02.824Z,102057.15
2019-03-31T18:53:50.391Z,102061.78
2019-03-31T18:56:37.990Z,102059.34
2019-03-31T18:59:25.688Z,102074.02
2019-03-31T19:12:56.553Z,102089.12
2019-03-31T19:15:44.465Z,102083.65
2019-03-31T19:18:32.171Z,102086.80
2019-03-31T19:21:20.164Z,102094.75
2019-03-31T19:24:08.012Z,102096.76
2019-03-31T19:32:27.443Z,102102.78
2019-03-31T19:40:41.450Z,102115.33
2019-03-31T19:43:28.814Z,102119.42
2019-03-31T19:46:16.526Z,102114.16
2019-03-31T19:49:04.348Z,102126.83
2019-03-31T19:55:01.953Z,102124.52
2019-03-31T19:57:49.698Z,102128.70
2019-03-31T20:06:00.206Z,102144.41
2019-03-31T20:08:47.816Z,102144.69
2019-03-31T20:14:14.236Z,102150.73
2019-03-31T20:19:40.820Z,102147.25
2019-03-31T20:22:41.340Z,102152.42
2019-03-31T20:25:29.021Z,102151.58
2019-03-31T20:28:16.995Z,102154.19
2019-03-31T20:31:04.743Z,102156.34
2019-03-31T20:33:52.460Z,102152.40
2019-03-31T20:36:39.992Z,102156.64
2019-03-31T20:39:56.534Z,102164.70
2019-03-31T20:42:37.933Z,102164.30
2019-03-31T20:45:27.426Z,102169.62
2019-03-31T20:47:55.962Z,102170.71
2019-03-31T20:50:24.431Z,102175.06
2019-03-31T20:52:52.888Z,102174.70
2019-03-31T20:55:21.702Z,102181.63
2019-03-31T20:58:10.375Z,102174.62
2019-03-31T21:03:18.751Z,102186.63
2019-03-31T21:12:08.100Z,102197.27
2019-03-31T21:20:19.295Z,102201.17
2019-03-31T21:22:47.991Z,102206.16
2019-03-31T21:25:16.619Z,102206.52
2019-03-31T21:27:45.188Z,102212.10
2019-03-31T21:30:34.565Z,102211.25
2019-03-31T21:33:03.262Z,102215.12
2019-03-31T21:35:31.875Z,102218.05
2019-03-31T21:38:00.746Z,102215.63
2019-03-31T21:40:29.255Z,102217.55
2019-03-31T21:42:57.911Z,102222.27
2019-03-31T21:45:26.479Z,102221.56
2019-03-31T21:47:55.324Z,102222.52
2019-03-31T21:50:23.928Z,102223.49
2019-03-31T21:52:52.360Z,102229.92
2019-03-31T21:55:21.172Z,102225.94
2019-03-31T21:57:49.889Z,102226.66
2019-03-31T22:00:20.413Z,102233.28
2019-03-31T22:02:49.292Z,102231.35
2019-03-31T22:05:18.071Z,102225.58
2019-03-31T22:07:46.542Z,102231.13
2019-03-31T22:10:15.367Z,102229.33
2019-03-31T22:12:44.549Z,102228.00
2019-03-31T22:15:13.342Z,102226.31
2019-03-31T22:17:41.925Z,102225.84
2019-03-31T22:20:10.456Z,102221.50
2019-03-31T22:22:39.062Z,102221.27
2019-03-31T22:25:07.655Z,102230.92
2019-03-31T22:27:36.330Z,102234.91
2019-03-31T22:30:06.555Z,102235.27
2019-03-31T22:32:35.114Z,102234.54
2019-03-31T22:35:03.825Z,102236.97
2019-03-31T22:37:32.267Z,102239.16
2019-03-31T22:40:00.687Z,102242.16
2019-03-31T22:42:29.086Z,102249.27
2019-03-31T22:44:57.623Z,102243.48
2019-03-31T22:47:25.987Z,102248.80
2019-03-31T22:49:54.752Z,102249.64
2019-03-31T22:52:23.261Z,102251.35
2019-03-31T22:54:51.661Z,102250.13
2019-03-31T22:57:20.105Z,102243.98
2019-03-31T22:59:48.556Z,102251.47
2019-03-31T23:02:17.272Z,102241.81
2019-03-31T23:04:45.729Z,102249.63
2019-03-31T23:07:14.248Z,102251.10
2019-03-31T23:09:42.631Z,102244.09
2019-03-31T23:12:11.123Z,102245.28
2019-03-31T23:14:39.509Z,102254.83
2019-03-31T23:17:07.966Z,102248.41
2019-03-31T23:19:36.396Z,102252.77
2019-03-31T23:22:06.648Z,102256.39
2019-03-31T23:24:35.028Z,102259.04
2019-03-31T23:27:03.470Z,102262.17
2019-03-31T23:29:32.112Z,102258.67
2019-03-31T23:32:00.610Z,102266.27
2019-03-31T23:34:29.107Z,102263.98
2019-03-31T23:36:57.486Z,102268.81
2019-03-31T23:39:26.048Z,102267.00
2019-03-31T23:41:54.880Z,102266.75
2019-03-31T23:44:23.295Z,102267.59
2019-03-31T23:46:51.677Z,102265.31
2019-03-31T23:49:20.136Z,102266.48
2019-03-31T23:51:48.660Z,102269.03
2019-03-31T23:54:17.203Z,102265.89
2019-03-31T23:56:45.929Z,102262.87
2019-03-31T23:59:14.302Z,102258.41
